createdAt,value
2022-10-18T00:02:32.042Z,102312.81
2022-10-18T00:05:16.358Z,102311.03
2022-10-18T00:08:18.289Z,102305.75
2022-10-18T00:11:07.833Z,102297.78
2022-10-18T00:14:03.733Z,102302.22
2022-10-18T00:16:58.788Z,102304.00
2022-10-18T00:19:33.531Z,102311.13
2022-10-18T00:22:30.544Z,102307.56
2022-10-18T00:25:22.392Z,102298.66
2022-10-18T00:27:58.612Z,102298.69
2022-10-18T00:30:34.500Z,102308.50
2022-10-18T00:33:10.361Z,102303.13
2022-10-18T00:35:47.727Z,102296.13
2022-10-18T00:38:31.980Z,102296.94
2022-10-18T00:41:35.771Z,102296.06
2022-10-18T00:44:11.074Z,102297.84
2022-10-18T00:46:58.393Z,102300.53
2022-10-18T00:49:43.604Z,102299.63
2022-10-18T00:52:53.909Z,102303.16
2022-10-18T00:55:34.373Z,102303.16
2022-10-18T00:58:18.024Z,102307.66
2022-10-18T01:00:56.824Z,102310.41
2022-10-18T01:03:29.936Z,102314.81
2022-10-18T01:06:03.681Z,102315.78
2022-10-18T01:09:07.905Z,102313.94
2022-10-18T01:12:39.658Z,102329.88
2022-10-18T01:16:00.338Z,102329.84
2022-10-18T01:18:58.752Z,102321.84
2022-10-18T01:21:52.828Z,102319.22
2022-10-18T01:24:56.551Z,102319.19
2022-10-18T01:28:30.227Z,102315.66
2022-10-18T01:31:35.932Z,102317.44
2022-10-18T01:34:16.610Z,102309.53
2022-10-18T01:36:58.659Z,102318.44
2022-10-18T01:39:42.485Z,102316.59
2022-10-18T01:42:40.056Z,102325.50
2022-10-18T01:45:56.956Z,102325.53
2022-10-18T01:48:42.646Z,102328.19
2022-10-18T01:51:41.708Z,102323.78
2022-10-18T01:54:42.522Z,102320.22
2022-10-18T01:57:32.438Z,102314.91
2022-10-18T02:00:35.862Z,102322.97
2022-10-18T02:03:23.755Z,102320.31
2022-10-18T02:06:29.010Z,102316.81
2022-10-18T02:09:19.985Z,102321.31
2022-10-18T02:11:56.421Z,102324.88
2022-10-18T02:14:37.110Z,102323.06
2022-10-18T02:17:19.315Z,102322.22
2022-10-18T02:20:10.563Z,102319.59
2022-10-18T02:23:07.982Z,102318.69
2022-10-18T02:25:45.194Z,102330.25
2022-10-18T02:28:29.287Z,102323.16
2022-10-18T02:32:11.786Z,102336.50
2022-10-18T02:35:24.039Z,102325.91
2022-10-18T02:38:23.511Z,102327.63
2022-10-18T02:41:20.968Z,102333.84
2022-10-18T02:44:49.616Z,102337.47
2022-10-18T02:47:32.287Z,102333.00
2022-10-18T02:50:10.116Z,102339.19
2022-10-18T02:52:44.910Z,102339.31
2022-10-18T02:55:21.539Z,102330.31
2022-10-18T02:57:57.071Z,102338.28
2022-10-18T03:00:35.227Z,102335.69
2022-10-18T03:03:07.976Z,102339.25
2022-10-18T03:05:42.306Z,102330.28
2022-10-18T03:08:18.513Z,102324.97
2022-10-18T03:10:53.138Z,102336.41
2022-10-18T03:13:37.959Z,102341.81
2022-10-18T03:16:42.591Z,102333.94
2022-10-18T03:19:31.261Z,102326.88
2022-10-18T03:22:20.803Z,102330.38
2022-10-18T03:24:59.644Z,102332.16
2022-10-18T03:27:48.671Z,102338.41
2022-10-18T03:30:29.141Z,102351.75
2022-10-18T03:35:53.364Z,102336.78
2022-10-18T03:38:26.368Z,102337.72
2022-10-18T03:41:09.922Z,102334.94
2022-10-18T03:43:49.485Z,102343.69
2022-10-18T03:46:37.361Z,102345.47
2022-10-18T03:49:20.202Z,102337.50
2022-10-18T03:51:53.113Z,102335.72
2022-10-18T03:54:31.419Z,102325.00
2022-10-18T03:57:07.295Z,102325.91
2022-10-18T03:59:42.435Z,102323.34
2022-10-18T04:02:25.859Z,102328.66
2022-10-18T04:05:02.313Z,102326.13
2022-10-18T04:07:41.897Z,102328.91
2022-10-18T04:10:20.139Z,102327.13
2022-10-18T04:13:03.021Z,102322.66
2022-10-18T04:15:40.458Z,102322.75
2022-10-18T04:18:15.645Z,102325.34
2022-10-18T04:20:49.779Z,102326.19
2022-10-18T04:23:25.627Z,102330.63
2022-10-18T04:26:04.462Z,102329.91
2022-10-18T04:28:48.832Z,102336.22
2022-10-18T04:31:31.496Z,102338.91
2022-10-18T04:34:37.773Z,102335.38
2022-10-18T04:37:21.747Z,102339.81
2022-10-18T04:40:12.977Z,102339.81
2022-10-18T04:42:53.706Z,102345.22
2022-10-18T04:45:39.111Z,102349.75
2022-10-18T04:48:17.694Z,102339.16
2022-10-18T04:50:52.683Z,102339.13
2022-10-18T04:53:31.079Z,102338.19
2022-10-18T04:56:03.798Z,102340.00
2022-10-18T04:58:36.768Z,102356.88
2022-10-18T05:01:09.378Z,102358.69
2022-10-18T05:03:42.060Z,102352.47
2022-10-18T05:06:14.770Z,102343.59
2022-10-18T05:08:51.268Z,102350.69
2022-10-18T05:11:33.491Z,102348.94
2022-10-18T05:14:08.185Z,102347.16
2022-10-18T05:16:43.862Z,102356.09
2022-10-18T05:19:16.511Z,102363.19
2022-10-18T05:21:49.312Z,102363.22
2022-10-18T05:24:24.220Z,102370.34
2022-10-18T05:27:00.356Z,102375.63
2022-10-18T05:29:33.238Z,102365.91
2022-10-18T05:32:05.939Z,102368.56
2022-10-18T05:34:38.699Z,102365.00
2022-10-18T05:37:13.989Z,102368.59
2022-10-18T05:39:57.792Z,102368.63
2022-10-18T05:42:30.794Z,102365.09
2022-10-18T05:45:04.365Z,102370.41
2022-10-18T05:47:37.160Z,102365.06
2022-10-18T05:50:10.318Z,102352.72
2022-10-18T05:52:43.019Z,102363.34
2022-10-18T05:55:16.104Z,102368.66
2022-10-18T05:57:54.401Z,102368.69
2022-10-18T06:00:31.254Z,102380.31
2022-10-18T06:03:06.537Z,102366.13
2022-10-18T06:05:41.822Z,102382.97
2022-10-18T06:08:20.738Z,102390.94
2022-10-18T06:10:53.503Z,102393.66
2022-10-18T06:13:26.465Z,102396.34
2022-10-18T06:15:59.296Z,102391.84
2022-10-18T06:18:31.923Z,102387.38
2022-10-18T06:21:05.222Z,102393.59
2022-10-18T06:23:38.071Z,102400.72
2022-10-18T06:26:18.021Z,102402.50
2022-10-18T06:28:51.440Z,102398.06
2022-10-18T06:31:25.667Z,102398.97
2022-10-18T06:34:03.833Z,102402.47
2022-10-18T06:36:40.475Z,102406.84
2022-10-18T06:39:13.206Z,102409.47
2022-10-18T06:41:46.010Z,102415.69
2022-10-18T06:44:21.821Z,102404.13
2022-10-18T06:46:56.687Z,102413.91
2022-10-18T06:49:29.249Z,102411.19
2022-10-18T06:52:02.042Z,102415.63
2022-10-18T06:54:37.841Z,102416.44
2022-10-18T06:57:10.415Z,102429.03
2022-10-18T06:59:43.477Z,102437.84
2022-10-18T07:02:19.914Z,102443.09
2022-10-18T07:04:52.489Z,102439.66
2022-10-18T07:07:25.153Z,102436.97
2022-10-18T07:09:59.143Z,102445.84
2022-10-18T07:12:33.233Z,102453.81
2022-10-18T07:15:09.400Z,102466.25
2022-10-18T07:17:43.657Z,102469.91
2022-10-18T07:20:16.732Z,102460.19
2022-10-18T07:22:49.381Z,102458.28
2022-10-18T07:25:23.877Z,102461.81
2022-10-18T07:27:58.553Z,102472.41
2022-10-18T07:30:31.212Z,102479.41
2022-10-18T07:33:06.299Z,102483.19
2022-10-18T07:35:38.974Z,102484.78
2022-10-18T07:38:14.158Z,102488.38
2022-10-18T07:41:07.416Z,102496.53
2022-10-18T07:43:50.979Z,102499.94
2022-10-18T07:46:23.636Z,102499.94
2022-10-18T07:48:58.331Z,102503.31
2022-10-18T07:51:33.972Z,102514.09
2022-10-18T07:54:06.764Z,102524.00
2022-10-18T07:56:39.478Z,102528.22
2022-10-18T07:59:14.535Z,102532.66
2022-10-18T08:01:58.184Z,102532.59
2022-10-18T08:04:32.810Z,102532.72
2022-10-18T08:07:09.739Z,102535.38
2022-10-18T08:09:45.553Z,102549.44
2022-10-18T08:12:24.818Z,102550.16
2022-10-18T08:15:00.647Z,102544.63
2022-10-18T08:17:37.025Z,102550.84
2022-10-18T08:20:30.398Z,102549.78
2022-10-18T08:23:11.338Z,102552.13
2022-10-18T08:25:46.939Z,102549.31
2022-10-18T08:28:29.908Z,102562.00
2022-10-18T08:31:08.342Z,102565.47
2022-10-18T08:33:42.984Z,102561.06
2022-10-18T08:36:17.527Z,102571.66
2022-10-18T08:38:52.937Z,102581.28
2022-10-18T08:42:01.922Z,102571.50
2022-10-18T08:44:49.778Z,102574.00
2022-10-18T08:47:43.910Z,102561.56
2022-10-18T08:50:46.952Z,102567.41
2022-10-18T08:53:29.900Z,102565.84
2022-10-18T08:56:21.679Z,102578.91
2022-10-18T08:59:00.611Z,102577.38
2022-10-18T09:02:08.370Z,102582.66
2022-10-18T09:05:06.334Z,102586.25
2022-10-18T09:08:25.880Z,102581.81
2022-10-18T09:11:40.401Z,102576.47
2022-10-18T09:14:25.205Z,102572.84
2022-10-18T09:17:33.811Z,102583.66
2022-10-18T09:20:22.917Z,102581.81
2022-10-18T09:23:06.734Z,102582.91
2022-10-18T09:26:20.543Z,102576.66
2022-10-18T09:29:23.075Z,102575.88
2022-10-18T09:32:19.343Z,102581.16
2022-10-18T09:35:15.170Z,102577.63
2022-10-18T09:37:52.337Z,102572.38
2022-10-18T09:40:32.494Z,102583.84
2022-10-18T09:43:22.919Z,102589.91
2022-10-18T09:45:57.511Z,102587.00
2022-10-18T09:48:49.361Z,102585.38
2022-10-18T09:51:29.553Z,102594.34
2022-10-18T09:54:19.192Z,102585.88
2022-10-18T09:57:10.049Z,102588.50
2022-10-18T09:59:45.813Z,102590.28
2022-10-18T10:02:23.794Z,102582.13
2022-10-18T10:04:57.096Z,102588.22
2022-10-18T10:07:41.297Z,102589.00
2022-10-18T10:10:25.266Z,102588.03
2022-10-18T10:13:22.086Z,102579.91
2022-10-18T10:16:03.287Z,102574.59
2022-10-18T10:18:43.494Z,102576.41
2022-10-18T10:21:17.463Z,102581.69
2022-10-18T10:24:02.052Z,102576.44
2022-10-18T10:26:41.681Z,102579.91
2022-10-18T10:29:51.493Z,102581.34
2022-10-18T10:32:30.748Z,102590.34
2022-10-18T10:35:52.549Z,102578.66
2022-10-18T10:38:29.309Z,102600.22
2022-10-18T10:41:03.267Z,102605.34
2022-10-18T10:43:40.093Z,102602.31
2022-10-18T10:46:19.145Z,102598.06
2022-10-18T10:49:27.889Z,102607.81
2022-10-18T10:52:09.293Z,102608.63
2022-10-18T10:57:52.809Z,102617.00
2022-10-18T11:00:45.097Z,102611.28
2022-10-18T11:03:28.968Z,102612.09
2022-10-18T11:06:02.390Z,102613.63
2022-10-18T11:08:43.558Z,102615.25
2022-10-18T11:11:30.714Z,102617.88
2022-10-18T11:14:26.292Z,102614.38
2022-10-18T11:17:39.705Z,102618.66
2022-10-18T11:20:32.938Z,102618.88
2022-10-18T11:23:17.383Z,102616.03
2022-10-18T11:26:11.495Z,102624.03
2022-10-18T11:29:26.053Z,102613.97
2022-10-18T11:32:12.112Z,102619.34
2022-10-18T11:34:54.171Z,102613.09
2022-10-18T11:38:14.266Z,102601.38
2022-10-18T11:41:23.983Z,102603.88
2022-10-18T11:44:04.409Z,102608.84
2022-10-18T11:47:16.651Z,102606.09
2022-10-18T11:50:08.672Z,102607.88
2022-10-18T11:53:06.678Z,102608.72
2022-10-18T11:56:30.165Z,102611.31
2022-10-18T11:59:27.741Z,102611.44
2022-10-18T12:02:42.073Z,102608.50
2022-10-18T12:05:24.085Z,102598.47
2022-10-18T12:08:07.103Z,102611.63
2022-10-18T12:11:04.144Z,102601.44
2022-10-18T12:13:51.210Z,102596.16
2022-10-18T12:16:50.018Z,102606.75
2022-10-18T12:19:28.394Z,102594.06
2022-10-18T12:22:20.003Z,102588.72
2022-10-18T12:24:52.733Z,102589.44
2022-10-18T12:27:56.635Z,102595.53
2022-10-18T12:30:54.357Z,102594.69
2022-10-18T12:33:36.087Z,102585.56
2022-10-18T12:36:20.814Z,102590.25
2022-10-18T12:39:07.033Z,102589.00
2022-10-18T12:41:39.776Z,102597.91
2022-10-18T12:44:31.481Z,102581.53
2022-10-18T12:47:06.628Z,102583.59
2022-10-18T12:49:42.603Z,102572.66
2022-10-18T12:52:24.911Z,102580.75
2022-10-18T12:55:18.198Z,102576.13
2022-10-18T12:57:53.621Z,102584.16
2022-10-18T13:00:32.195Z,102577.09
2022-10-18T13:03:14.222Z,102565.13
2022-10-18T13:05:54.430Z,102574.38
2022-10-18T13:08:27.795Z,102571.50
2022-10-18T13:11:12.262Z,102568.13
2022-10-18T13:14:17.294Z,102569.19
2022-10-18T13:16:57.010Z,102565.34
2022-10-18T13:19:38.043Z,102567.06
2022-10-18T13:22:31.359Z,102560.69
2022-10-18T13:25:33.107Z,102564.09
2022-10-18T13:28:31.633Z,102559.44
2022-10-18T13:31:39.506Z,102564.31
2022-10-18T13:34:30.953Z,102562.19
2022-10-18T13:37:20.703Z,102558.69
2022-10-18T13:40:24.393Z,102551.91
2022-10-18T13:42:57.064Z,102560.94
2022-10-18T13:45:32.648Z,102569.84
2022-10-18T13:48:30.242Z,102573.84
2022-10-18T13:52:03.410Z,102566.47
2022-10-18T13:55:15.975Z,102571.47
2022-10-18T13:58:08.482Z,102579.34
2022-10-18T14:00:49.462Z,102564.91
2022-10-18T14:03:56.314Z,102568.06
2022-10-18T14:06:43.145Z,102566.13
2022-10-18T14:09:40.257Z,102568.34
2022-10-18T14:12:44.115Z,102568.03
2022-10-18T14:15:42.021Z,102568.09
2022-10-18T14:18:31.778Z,102576.41
2022-10-18T14:21:21.842Z,102577.81
2022-10-18T14:23:55.259Z,102577.34
2022-10-18T14:26:29.303Z,102572.84
2022-10-18T14:29:16.192Z,102574.56
2022-10-18T14:31:54.546Z,102568.47
2022-10-18T14:34:27.115Z,102576.41
2022-10-18T14:37:07.257Z,102580.41
2022-10-18T14:39:51.399Z,102584.50
2022-10-18T14:42:32.211Z,102579.78
2022-10-18T14:45:22.978Z,102578.69
2022-10-18T14:48:14.696Z,102572.41
2022-10-18T14:51:00.129Z,102577.16
2022-10-18T14:53:38.876Z,102572.72
2022-10-18T14:56:25.482Z,102575.53
2022-10-18T14:59:03.651Z,102571.94
2022-10-18T15:01:36.623Z,102566.84
2022-10-18T15:04:12.019Z,102572.78
2022-10-18T15:06:45.061Z,102568.41
2022-10-18T15:09:24.089Z,102576.50
2022-10-18T15:11:57.993Z,102575.13
2022-10-18T15:14:31.597Z,102571.34
2022-10-18T15:17:25.124Z,102574.06
2022-10-18T15:20:25.178Z,102577.66
2022-10-18T15:23:33.276Z,102571.41
2022-10-18T15:26:12.604Z,102571.69
2022-10-18T15:28:54.051Z,102577.06
2022-10-18T15:31:32.133Z,102571.66
2022-10-18T15:34:30.770Z,102564.56
2022-10-18T15:37:18.398Z,102564.69
2022-10-18T15:40:32.909Z,102566.59
2022-10-18T15:43:28.224Z,102568.56
2022-10-18T15:46:06.702Z,102560.56
2022-10-18T15:48:41.614Z,102565.19
2022-10-18T15:51:48.300Z,102569.72
2022-10-18T15:54:32.427Z,102571.69
2022-10-18T15:57:11.562Z,102570.88
2022-10-18T16:00:20.513Z,102570.78
2022-10-18T16:02:53.055Z,102567.31
2022-10-18T16:05:28.272Z,102560.34
2022-10-18T16:08:01.044Z,102568.63
2022-10-18T16:10:33.735Z,102577.59
2022-10-18T16:13:06.696Z,102567.84
2022-10-18T16:15:39.410Z,102564.31
2022-10-18T16:18:19.284Z,102571.44
2022-10-18T16:20:53.226Z,102579.41
2022-10-18T16:23:31.143Z,102580.34
2022-10-18T16:26:03.829Z,102570.88
2022-10-18T16:28:36.614Z,102583.56
2022-10-18T16:33:50.534Z,102583.06
2022-10-18T16:36:26.973Z,102586.84
2022-10-18T16:39:04.695Z,102588.00
2022-10-18T16:41:37.264Z,102590.84
2022-10-18T16:44:10.003Z,102589.22
2022-10-18T16:46:42.834Z,102601.00
2022-10-18T16:49:24.310Z,102614.56
2022-10-18T16:51:57.511Z,102610.38
2022-10-18T16:54:30.139Z,102615.88
2022-10-18T16:57:02.682Z,102619.59
2022-10-18T16:59:35.177Z,102629.47
2022-10-18T17:02:09.384Z,102623.34
2022-10-18T17:04:42.044Z,102619.91
2022-10-18T17:07:25.534Z,102628.84
2022-10-18T17:09:58.075Z,102627.09
2022-10-18T17:12:30.707Z,102627.13
2022-10-18T17:15:04.226Z,102636.91
2022-10-18T17:17:38.140Z,102640.47
2022-10-18T17:20:21.184Z,102631.63
2022-10-18T17:22:54.238Z,102625.41
2022-10-18T17:25:26.791Z,102641.34
2022-10-18T17:27:59.297Z,102637.78
2022-10-18T17:30:32.812Z,102636.00
2022-10-18T17:33:08.554Z,102634.22
2022-10-18T17:35:43.231Z,102636.88
2022-10-18T17:38:15.911Z,102639.50
2022-10-18T17:40:48.385Z,102657.22
2022-10-18T17:43:20.981Z,102658.06
2022-10-18T17:45:56.762Z,102650.09
2022-10-18T17:48:29.491Z,102656.25
2022-10-18T17:51:11.057Z,102665.97
2022-10-18T17:53:44.121Z,102661.56
2022-10-18T17:56:16.754Z,102664.22
2022-10-18T17:58:52.824Z,102665.97
2022-10-18T18:01:25.650Z,102664.22
2022-10-18T18:04:01.366Z,102659.75
2022-10-18T18:06:38.921Z,102677.47
2022-10-18T18:09:15.097Z,102665.06
2022-10-18T18:11:48.798Z,102673.91
2022-10-18T18:14:21.601Z,102666.81
2022-10-18T18:16:54.820Z,102665.00
2022-10-18T18:19:27.633Z,102670.28
2022-10-18T18:22:00.386Z,102672.03
2022-10-18T18:24:33.404Z,102666.72
2022-10-18T18:27:05.947Z,102685.25
2022-10-18T18:29:38.538Z,102678.13
2022-10-18T18:32:11.080Z,102680.75
2022-10-18T18:34:43.711Z,102672.75
2022-10-18T18:37:16.203Z,102675.41
2022-10-18T18:39:48.949Z,102661.22
2022-10-18T18:42:22.523Z,102668.28
2022-10-18T18:44:55.115Z,102664.75
2022-10-18T18:47:28.030Z,102666.50
2022-10-18T18:50:02.417Z,102670.03
2022-10-18T18:52:35.218Z,102672.63
2022-10-18T18:55:08.826Z,102672.53
2022-10-18T18:57:41.406Z,102674.22
2022-10-18T19:00:14.922Z,102684.78
2022-10-18T19:02:47.406Z,102681.19
2022-10-18T19:05:20.078Z,102678.50
2022-10-18T19:07:52.633Z,102673.09
2022-10-18T19:10:26.061Z,102673.94
2022-10-18T19:12:58.635Z,102673.84
2022-10-18T19:15:31.277Z,102667.59
2022-10-18T19:18:05.508Z,102669.28
2022-10-18T19:20:38.037Z,102671.88
2022-10-18T19:23:10.667Z,102666.56
2022-10-18T19:25:43.208Z,102671.78
2022-10-18T19:28:15.667Z,102676.13
2022-10-18T19:30:50.218Z,102674.34
2022-10-18T19:33:41.073Z,102676.03
2022-10-18T19:36:15.605Z,102678.66
2022-10-18T19:38:48.166Z,102674.19
2022-10-18T19:41:21.566Z,102677.66
2022-10-18T19:43:55.709Z,102676.69
2022-10-18T19:46:28.430Z,102681.94
2022-10-18T19:49:01.011Z,102681.03
2022-10-18T19:51:33.690Z,102688.94
2022-10-18T19:54:06.556Z,102682.72
2022-10-18T19:56:39.469Z,102686.28
2022-10-18T19:59:15.116Z,102691.53
2022-10-18T20:01:47.689Z,102686.97
2022-10-18T20:04:20.329Z,102691.25
2022-10-18T20:06:52.817Z,102694.72
2022-10-18T20:09:25.435Z,102700.84
2022-10-18T20:11:58.584Z,102697.25
2022-10-18T20:14:31.347Z,102696.28
2022-10-18T20:17:05.735Z,102693.59
2022-10-18T20:19:38.549Z,102690.84
2022-10-18T20:22:11.071Z,102689.88
2022-10-18T20:24:43.609Z,102685.47
2022-10-18T20:27:16.344Z,102683.69
2022-10-18T20:29:48.995Z,102678.41
2022-10-18T20:32:21.509Z,102671.28
2022-10-18T20:34:54.065Z,102670.38
2022-10-18T20:37:26.586Z,102674.75
2022-10-18T20:40:00.141Z,102671.16
2022-10-18T20:42:32.650Z,102676.41
2022-10-18T20:45:07.730Z,102679.91
2022-10-18T20:47:40.322Z,102679.88
2022-10-18T20:50:12.926Z,102678.03
2022-10-18T20:52:50.997Z,102679.75
2022-10-18T20:55:23.615Z,102672.69
2022-10-18T20:57:56.162Z,102675.28
2022-10-18T21:00:28.671Z,102675.28
2022-10-18T21:03:01.518Z,102682.28
2022-10-18T21:05:34.099Z,102676.16
2022-10-18T21:08:06.608Z,102674.38
2022-10-18T21:10:39.156Z,102671.72
2022-10-18T21:13:11.680Z,102667.34
2022-10-18T21:15:44.194Z,102670.00
2022-10-18T21:18:16.713Z,102670.81
2022-10-18T21:20:49.236Z,102665.53
2022-10-18T21:23:22.603Z,102669.03
2022-10-18T21:25:55.111Z,102666.34
2022-10-18T21:28:27.776Z,102662.78
2022-10-18T21:31:19.526Z,102667.19
2022-10-18T21:34:00.736Z,102675.09
2022-10-18T21:36:37.651Z,102680.34
2022-10-18T21:39:18.836Z,102669.72
2022-10-18T21:41:51.797Z,102675.03
2022-10-18T21:44:24.355Z,102671.44
2022-10-18T21:46:56.923Z,102669.59
2022-10-18T21:49:30.251Z,102659.84
2022-10-18T21:52:05.265Z,102668.56
2022-10-18T21:54:37.977Z,102666.72
2022-10-18T21:57:10.545Z,102666.66
2022-10-18T21:59:43.410Z,102673.69
2022-10-18T22:02:15.918Z,102670.03
2022-10-18T22:04:49.605Z,102663.84
2022-10-18T22:07:22.142Z,102656.78
2022-10-18T22:09:54.657Z,102659.47
2022-10-18T22:12:27.202Z,102662.97
2022-10-18T22:15:00.299Z,102655.06
2022-10-18T22:17:33.167Z,102651.50
2022-10-18T22:20:06.761Z,102653.25
2022-10-18T22:22:39.341Z,102661.09
2022-10-18T22:25:11.923Z,102652.28
2022-10-18T22:27:44.411Z,102652.22
2022-10-18T22:30:17.049Z,102653.00
2022-10-18T22:32:49.611Z,102662.63
2022-10-18T22:35:22.427Z,102664.34
2022-10-18T22:37:54.894Z,102658.16
2022-10-18T22:40:27.864Z,102659.00
2022-10-18T22:43:00.414Z,102658.09
2022-10-18T22:45:33.011Z,102662.38
2022-10-18T22:48:06.264Z,102660.59
2022-10-18T22:50:38.769Z,102657.88
2022-10-18T22:53:11.330Z,102652.53
2022-10-18T22:55:43.798Z,102653.41
2022-10-18T22:58:16.522Z,102655.19
2022-10-18T23:00:49.346Z,102662.19
2022-10-18T23:03:21.856Z,102657.69
2022-10-18T23:05:57.971Z,102656.75
2022-10-18T23:08:31.186Z,102661.19
2022-10-18T23:11:03.665Z,102655.88
2022-10-18T23:13:38.832Z,102665.47
2022-10-18T23:16:12.678Z,102657.47
2022-10-18T23:18:51.691Z,102660.97
2022-10-18T23:21:27.934Z,102659.13
2022-10-18T23:24:00.480Z,102667.84
2022-10-18T23:26:33.409Z,102659.03
2022-10-18T23:29:06.016Z,102658.97
2022-10-18T23:31:38.875Z,102661.53
2022-10-18T23:34:11.502Z,102664.19
2022-10-18T23:39:21.691Z,102665.00
2022-10-18T23:41:54.227Z,102650.91
2022-10-18T23:44:26.783Z,102660.47
2022-10-18T23:46:59.323Z,102653.41
2022-10-18T23:49:31.890Z,102658.66
2022-10-18T23:52:04.546Z,102650.78
2022-10-18T23:54:37.093Z,102657.81
2022-10-18T23:57:09.606Z,102658.75
2022-10-18T23:59:42.226Z,102649.06
